x

Ne St Martin - 330 Nm Ne St Martin Is (41044) Wave Buoy

11:50pm - Sat 1st Aug 2015 All times are UTC.

  • Sig Wave height 5.9ft
  • Swell Direction
  • Peak Period 7s
  • Average Period 5s
  • Wind
    18mph, 22mph gusts
  • Sea Temp 83°f
  • Air Temp 82°f
  • Sea Pressure 1017.2mb

More Historic Weather Station data

Upgrade to MSW Pro to gain access to the past 30 days of data for over 8000 Wavebouys and Weather Stations around the globe.

Join Pro

Comparision Forecast

View Surf forecast
   
Sat 08/01 11:50pm 6ft 7s 5s 18 22 mph 1017.2mb 83f 82f
10:50pm 6ft 7s 6s 20 25 mph 1016.7mb 83f 82f
9:50pm 6ft 7s 6s 22 27 mph 1016.1mb 83f 82f
8:50pm 5.5ft 8s 5s 18 20 mph 1016.5mb 83f 81f
7:50pm 5.5ft 7s 5s 18 20 mph 1016.4mb 84f 82f
6:50pm 5ft 7s 5s 18 20 mph 1016.8mb 84f 83f
5:50pm 5.5ft 7s 5s 18 20 mph 1017.2mb 84f 83f
4:50pm 5ft 7s 6s 18 20 mph 1017.8mb 84f 83f
3:50pm 5.5ft 7s 6s 18 20 mph 1018.4mb 83f 83f
2:50pm 5ft 7s 5s 18 20 mph 1018.7mb 83f 83f
1:50pm 5ft 8s 5s 16 20 mph 1018.9mb 83f 83f
12:50pm 5ft 5s 5s 16 18 mph 1018.5mb 83f 83f
11:50am 5ft 6s 5s 18 20 mph 1018.1mb 83f 82f
10:50am 5ft 6s 5s 18 20 mph 1017.9mb 83f 82f
9:50am 5ft 6s 5s 18 22 mph 1017.5mb 83f 82f
8:50am 5.5ft 5s 5s 18 20 mph 1017.3mb 83f 82f
7:50am 5ft 6s 5s 20 22 mph 1017.3mb 83f 82f
6:50am 5ft 6s 5s 18 20 mph 1017.6mb 83f 82f
5:50am 5ft 8s 5s 18 22 mph 1018mb 83f 82f
4:50am 5ft 7s 5s 18 20 mph 1018.6mb 83f 82f
3:50am 5ft 7s 5s 20 25 mph 1019.3mb 83f 83f
2:50am 5ft 7s 5s 18 22 mph 1019.7mb 83f 83f
1:50am 5ft 7s 5s 18 20 mph 1019.8mb 83f 83f
12:50am 4.5ft 8s 5s 16 20 mph 1019.3mb 83f 83f
Fri 07/31 11:50pm 4.5ft 8s 6s 16 20 mph 1018.9mb 83f 83f
10:50pm 4.5ft 8s 5s 18 20 mph 1018.4mb 84f 83f
9:50pm 4.5ft 7s 5s 16 20 mph 1018.2mb 84f 83f
8:50pm 4.5ft 7s 5s 13 18 mph 1018.2mb 84f 83f
7:50pm 5ft 7s 6s 16 18 mph 1018.3mb 84f 83f
6:50pm 5ft 8s 6s 13 18 mph 1019.1mb 84f 83f
5:50pm 4.5ft 7s 6s 13 16 mph 1019.7mb 84f 83f
4:50pm 5ft 7s 6s 13 16 mph 1020.2mb 84f 83f
3:50pm 5ft 8s 6s 13 16 mph 1020.7mb 83f 83f
2:50pm 5ft 7s 6s 13 16 mph 1021mb 83f 83f
1:50pm 5ft 9s 6s 13 16 mph 1021.1mb 83f 83f
12:50pm 5ft 8s 5s 16 20 mph 1020.9mb 83f 83f
11:50am 5ft 7s 5s 18 20 mph 1020.5mb 83f 83f
10:50am 5ft 6s 6s 18 20 mph 1020mb 83f 83f
9:50am 5ft 8s 6s 16 18 mph 1019.3mb 83f 82f
8:50am 5ft 8s 6s 13 18 mph 1018.8mb 83f 82f
7:50am 5ft 7s 6s 16 18 mph 1018.8mb 83f 82f
6:50am 5ft 7s 5s 16 20 mph 1019mb 83f 82f
5:50am 5ft 8s 6s 18 22 mph 1019mb 83f 82f
4:50am 5ft 9s 6s 18 20 mph 1019.6mb 83f 82f
3:50am 5ft 7s 6s 16 18 mph 1020.4mb 83f 83f
2:50am 5ft 10s 6s 16 20 mph 1020.8mb 83f 83f
1:50am 5.5ft 9s 6s 16 20 mph 1021mb 83f 83f
12:50am 5ft 9s 6s 18 20 mph 1020.5mb 83f 83f
Thu 07/30 11:50pm 5ft 8s 6s 16 18 mph 1020.1mb 83f 83f
10:50pm 5ft 10s 6s 16 20 mph 1019.5mb 83f 83f
9:50pm 5ft 9s 6s 16 18 mph 1019.2mb 83f 83f
8:50pm 5.5ft 6s 6s 13 18 mph 1019mb 83f 83f
7:50pm 5ft 6s 6s 16 18 mph 1018.9mb 83f 83f
6:50pm 6ft 10s 6s 13 18 mph 1019mb 83f 83f
5:50pm 6ft 8s 6s 16 18 mph 1019.5mb 83f 83f
4:50pm 5ft 10s 6s 16 20 mph 1020.1mb 83f 83f
3:50pm 5ft 8s 6s 16 18 mph 1020.3mb 83f 83f
2:50pm 6ft 10s 6s 18 20 mph 1020.8mb 83f 83f
1:50pm 5ft 9s 6s 18 20 mph 1020.4mb 83f 83f
12:50pm 5.5ft 8s 6s 13 18 mph 1020.1mb 83f 82f
11:50am 5ft 11s 6s 13 16 mph 1020.2mb 83f 80f
10:50am 5ft 9s 6s 20 25 mph 1019.5mb 83f 81f
9:50am 5ft 10s 6s 13 18 mph 1018.9mb 83f 82f
8:50am 5ft 9s 6s 13 16 mph 1018.7mb 83f 82f
7:50am 5ft 8s 6s 13 16 mph 1018.5mb 83f 82f
6:50am 5ft 9s 6s 16 20 mph 1018.7mb 83f 82f
5:50am 4.5ft 8s 6s 18 20 mph 1019mb 83f 82f
4:50am 5ft 9s 6s 16 20 mph 1019.4mb 83f 82f
3:50am 4.5ft 10s 5s 16 18 mph 1020mb 83f 82f
2:50am 4.5ft 11s 6s 16 20 mph 1020mb 83f 82f
1:50am 4.5ft 10s 6s 16 20 mph 1019.8mb 83f 83f
12:50am 4.5ft 10s 6s 16 18 mph 1019.5mb 83f 83f
Wed 07/29 11:50pm 4.5ft 9s 6s 13 18 mph 1019.1mb 83f 82f
10:50pm 4.5ft 9s 6s 13 16 mph 1018.5mb 84f 82f
9:50pm 4.5ft 10s 6s 13 16 mph 1018.2mb 84f 83f
8:50pm 4.5ft 9s 6s 11 16 mph 1017.8mb 84f 83f
7:50pm 5ft 10s 6s 11 13 mph 1017.7mb 84f 83f
6:50pm 5ft 10s 6s 11 13 mph 1017.9mb 84f 83f
5:50pm 4.5ft 9s 6s 13 16 mph 1018.2mb 84f 83f
4:50pm 5ft 10s 6s 11 13 mph 1018.7mb 83f 83f
3:50pm 5ft 10s 6s 13 16 mph 1018.9mb 83f 82f
2:50pm 4.5ft 10s 6s 11 13 mph 1019.1mb 83f 82f
1:50pm 4.5ft 10s 6s 11 16 mph 1019.2mb 83f 82f
12:50pm 4.5ft 10s 6s 13 16 mph 1018.9mb 83f 83f
11:50am 4.5ft 10s 6s 13 16 mph 1018.8mb 83f 82f
10:50am 4.5ft 10s 6s 13 16 mph 1018.6mb 83f 82f
9:50am 4.5ft 9s 6s 13 16 mph 1018mb 83f 82f
8:50am 4.5ft 9s 6s 13 16 mph 1017.7mb 83f 82f
7:50am 4.5ft 10s 6s 13 16 mph 1017.6mb 83f 82f
6:50am 4.5ft 9s 6s 13
mph
1017.5mb 83f 82f
5:50am 4.5ft 8s 6s 13 16 mph 1017.5mb 83f 82f
4:50am 4.5ft 10s 6s 11 13 mph 1018.1mb 83f 81f
3:50am 4.5ft 8s 6s 11 13 mph 1018.7mb 83f 82f
2:50am 4.5ft 8s 6s 11 13 mph 1019.1mb 83f 82f
1:50am 4ft 8s 6s 11 13 mph 1019.1mb 83f 82f